Time;durP1;ratioP1;P1;durP2;ratioP2;P2;SDS_P1;SDS_P2;PMS_P1;PMS_P2;Temp;Humidity;BMP_temperature;BMP_pressure;BME280_temperature;BME280_humidity;BME280_pressure;Samples;Min_cycle;Max_cycle;Signal;HPM_P1;HPM_P2
2022/07/13 00:03:19;;;;;;;18.83;17.93;;;;;;;23.06;100.00;102061.64;2031486;69;31060;-69
2022/07/13 00:05:49;;;;;;;17.63;16.90;;;;;;;22.96;100.00;102072.77;1938343;73;24239;-69
2022/07/13 00:08:19;;;;;;;18.27;17.37;;;;;;;22.94;100.00;102068.59;1995697;70;24209;-70
2022/07/13 00:10:49;;;;;;;18.45;17.65;;;;;;;22.94;100.00;102072.27;2012459;71;24109;-70
2022/07/13 00:13:20;;;;;;;19.52;18.62;;;;;;;23.01;100.00;102071.75;2016858;70;24146;-70
2022/07/13 00:15:50;;;;;;;20.50;19.60;;;;;;;23.02;100.00;102070.55;2017038;71;24134;-70
2022/07/13 00:18:20;;;;;;;21.10;20.17;;;;;;;23.03;100.00;102075.06;2016940;71;24129;-69
2022/07/13 00:20:51;;;;;;;20.60;19.60;;;;;;;22.94;100.00;102072.84;2012971;70;24629;-69
2022/07/13 00:23:21;;;;;;;23.98;22.37;;;;;;;22.89;100.00;102071.02;2016294;70;24147;-69
2022/07/13 00:25:51;;;;;;;21.10;19.90;;;;;;;22.83;100.00;102072.40;2019827;70;24591;-69
2022/07/13 00:28:21;;;;;;;21.90;20.68;;;;;;;22.82;100.00;102072.14;2017618;70;24171;-69
2022/07/13 00:30:52;;;;;;;23.00;21.68;;;;;;;22.73;100.00;102072.75;2007841;70;24737;-70
2022/07/13 00:33:22;;;;;;;22.02;20.62;;;;;;;22.75;100.00;102073.84;1976645;72;24155;-70
2022/07/13 00:35:52;;;;;;;19.57;18.62;;;;;;;22.83;100.00;102068.73;1980473;72;24646;-70
2022/07/13 00:38:22;;;;;;;19.82;18.92;;;;;;;22.85;100.00;102061.55;1980455;72;24122;-69
2022/07/13 00:40:53;;;;;;;20.57;19.48;;;;;;;22.90;100.00;102061.94;1972771;72;24147;-69
2022/07/13 00:43:23;;;;;;;20.12;18.95;;;;;;;22.93;100.00;102061.28;1985584;72;24157;-70
2022/07/13 00:45:54;;;;;;;19.67;18.67;;;;;;;22.97;100.00;102053.77;1977047;72;24147;-70
2022/07/13 00:48:24;;;;;;;20.62;19.62;;;;;;;22.96;100.00;102052.93;1978568;72;24234;-69
2022/07/13 00:50:55;;;;;;;22.13;20.82;;;;;;;22.82;100.00;102055.14;1975537;72;24137;-70
2022/07/13 00:53:26;;;;;;;20.27;19.27;;;;;;;22.88;100.00;102058.63;1980569;72;24180;-70
2022/07/13 00:55:57;;;;;;;19.87;18.73;;;;;;;22.97;100.00;102050.93;1979402;72;24670;-69
2022/07/13 00:58:28;;;;;;;15.93;15.13;;;;;;;23.00;100.00;102061.58;1980481;72;24609;-69
2022/07/13 01:00:58;;;;;;;18.87;17.67;;;;;;;23.21;100.00;102061.64;1972017;72;24546;-70
2022/07/13 01:03:28;;;;;;;18.20;17.10;;;;;;;23.15;100.00;102060.98;1980631;72;24756;-70
2022/07/13 01:06:00;;;;;;;18.30;17.27;;;;;;;23.14;100.00;102059.35;1980542;72;24169;-70
2022/07/13 01:11:45;;;;;;;15.23;14.38;;;;;;;23.27;100.00;102046.11;2015248;71;30955;-70
2022/07/13 01:17:33;;;;;;;14.07;13.38;;;;;;;23.36;100.00;102048.31;2016836;71;30920;-70
2022/07/13 01:23:20;;;;;;;14.18;13.38;;;;;;;23.39;100.00;102048.45;2004197;71;31462;-70
2022/07/13 01:29:04;;;;;;;19.48;18.48;;;;;;;23.24;100.00;102040.52;2016836;71;30989;-69
2022/07/13 01:34:51;;;;;;;18.73;17.80;;;;;;;22.97;100.00;102044.69;1991827;71;31054;-70
2022/07/13 01:40:36;;;;;;;17.62;16.73;;;;;;;22.87;100.00;102047.88;2000848;71;30957;-69
2022/07/13 01:46:21;;;;;;;21.82;20.72;;;;;;;22.83;100.00;102045.48;1995577;71;31335;-69
2022/07/13 01:52:06;;;;;;;22.32;21.12;;;;;;;22.83;100.00;102041.23;2005908;71;31028;-69
2022/07/13 01:57:51;;;;;;;23.18;22.02;;;;;;;22.67;100.00;102038.69;1994986;71;30970;-69
2022/07/13 02:03:36;;;;;;;22.70;21.50;;;;;;;22.75;100.00;102031.34;2015322;71;31013;-70
2022/07/13 02:09:21;;;;;;;23.52;22.15;;;;;;;22.68;100.00;102021.91;2013888;71;30898;-70
2022/07/13 02:15:08;;;;;;;24.32;23.12;;;;;;;22.59;100.00;102026.19;2011697;71;31424;-69
2022/07/13 02:20:52;;;;;;;25.62;24.32;;;;;;;22.43;100.00;102025.66;2016836;71;31004;-69
2022/07/13 02:26:36;;;;;;;23.98;22.80;;;;;;;22.60;100.00;102023.61;1995604;71;31359;-71
2022/07/13 02:32:20;;;;;;;24.18;22.73;;;;;;;22.40;100.00;102020.67;2011668;71;30973;-70
2022/07/13 02:38:05;;;;;;;25.43;24.02;;;;;;;22.32;100.00;102030.02;1995285;71;31483;-70
2022/07/13 02:43:49;;;;;;;26.15;24.85;;;;;;;22.33;100.00;102033.95;1995471;71;30850;-69
2022/07/13 02:49:34;;;;;;;28.05;26.45;;;;;;;22.22;100.00;102039.11;2006141;71;30998;-70
2022/07/13 02:55:18;;;;;;;30.60;28.80;;;;;;;21.99;100.00;102036.82;1997274;71;30927;-70
2022/07/13 03:01:02;;;;;;;36.20;34.20;;;;;;;21.85;100.00;102036.95;2015108;71;33466;-70
2022/07/13 03:06:47;;;;;;;37.58;35.52;;;;;;;21.92;100.00;102028.82;2015437;71;31019;-69
2022/07/13 03:12:31;;;;;;;34.67;32.77;;;;;;;21.92;100.00;102027.95;1992065;71;30958;-69
2022/07/13 03:18:15;;;;;;;33.30;31.20;;;;;;;22.15;100.00;102028.06;2017305;71;30878;-72
2022/07/13 03:24:00;;;;;;;32.73;30.73;;;;;;;22.04;100.00;102028.97;1998765;71;30889;-71
2022/07/13 03:29:44;;;;;;;30.87;29.00;;;;;;;22.09;100.00;102023.72;2002708;71;31004;-72
2022/07/13 03:35:27;;;;;;;29.85;28.15;;;;;;;22.23;100.00;102016.72;2011536;71;30982;-72
2022/07/13 03:41:11;;;;;;;30.37;28.65;;;;;;;22.15;100.00;102023.81;2006461;71;30820;-70
2022/07/13 03:46:57;;;;;;;29.37;27.50;;;;;;;22.11;100.00;102033.56;1995481;71;31327;-70
2022/07/13 03:52:42;;;;;;;29.12;27.42;;;;;;;22.24;100.00;102021.22;2013808;71;31385;-69
2022/07/13 03:58:26;;;;;;;31.60;29.63;;;;;;;22.08;100.00;102025.72;1995692;71;30829;-70
2022/07/13 04:04:11;;;;;;;32.15;30.15;;;;;;;22.16;100.00;102030.53;2004367;71;30982;-70
2022/07/13 04:09:55;;;;;;;33.18;31.17;;;;;;;22.18;100.00;102025.97;2015404;71;31030;-69
2022/07/13 04:15:39;;;;;;;29.23;27.62;;;;;;;22.43;100.00;102030.73;2008091;71;30871;-70
2022/07/13 04:21:23;;;;;;;26.15;24.70;;;;;;;22.64;100.00;102028.84;2006552;71;30900;-69
2022/07/13 04:27:08;;;;;;;24.67;23.18;;;;;;;22.78;100.00;102034.91;2004177;71;32984;-70
2022/07/13 04:32:52;;;;;;;23.40;22.20;;;;;;;22.81;100.00;102037.05;2000485;71;30917;-70
2022/07/13 04:38:36;;;;;;;23.25;22.05;;;;;;;22.78;100.00;102040.58;1995451;71;30875;-70
2022/07/13 04:44:21;;;;;;;22.65;21.35;;;;;;;22.81;100.00;102054.05;2018712;71;30911;-70
2022/07/13 04:50:07;;;;;;;23.83;22.62;;;;;;;22.78;100.00;102044.83;2018850;71;31416;-70
2022/07/13 04:55:51;;;;;;;21.10;20.10;;;;;;;22.68;100.00;102042.58;2004004;70;31014;-70
2022/07/13 05:01:38;;;;;;;23.80;22.50;;;;;;;22.62;100.00;102045.94;2013777;71;31025;-69
2022/07/13 05:07:22;;;;;;;24.57;23.17;;;;;;;22.39;100.00;102047.32;2006573;71;30902;-70
2022/07/13 05:13:06;;;;;;;24.07;22.87;;;;;;;22.27;100.00;102057.09;1998810;71;33378;-69
2022/07/13 05:18:54;;;;;;;24.23;22.83;;;;;;;22.35;100.00;102064.16;2008611;71;31371;-69
2022/07/13 05:24:43;;;;;;;25.40;23.90;;;;;;;22.24;100.00;102066.52;2015281;71;33437;-69
2022/07/13 05:30:24;;;;;;;23.67;22.17;;;;;;;22.16;100.00;102082.89;2004868;71;31458;-71
2022/07/13 05:36:09;;;;;;;20.53;19.53;;;;;;;22.41;100.00;102076.98;2016946;71;31001;-70
2022/07/13 05:41:53;;;;;;;20.37;19.37;;;;;;;22.59;100.00;102081.42;2006335;71;30844;-70
2022/07/13 05:47:38;;;;;;;21.75;20.55;;;;;;;22.52;100.00;102087.36;2013743;71;31470;-69
2022/07/13 05:53:24;;;;;;;23.75;22.15;;;;;;;22.25;100.00;102090.80;2000909;71;30987;-70
2022/07/13 05:59:08;;;;;;;21.17;19.97;;;;;;;22.15;100.00;102098.23;2006718;71;30856;-69
2022/07/13 06:04:53;;;;;;;19.82;18.82;;;;;;;22.21;100.00;102106.80;2017062;71;31530;-69
2022/07/13 06:10:37;;;;;;;19.42;18.42;;;;;;;22.33;100.00;102110.97;2009627;71;33455;-69
2022/07/13 06:16:22;;;;;;;18.87;17.77;;;;;;;22.39;100.00;102108.20;2013334;71;31029;-71
2022/07/13 06:22:06;;;;;;;19.80;18.80;;;;;;;22.53;100.00;102111.10;2001056;71;31364;-71
2022/07/13 06:27:50;;;;;;;19.15;18.15;;;;;;;22.83;100.00;102109.23;2015393;71;31520;-70
2022/07/13 06:33:35;;;;;;;18.05;17.25;;;;;;;23.08;100.00;102104.64;2013538;71;30972;-70
2022/07/13 06:39:20;;;;;;;20.50;19.48;;;;;;;23.44;100.00;102100.76;2013425;71;30920;-70
2022/07/13 06:45:05;;;;;;;21.85;20.80;;;;;;;23.04;100.00;102093.73;2004165;71;31433;-70
2022/07/13 06:50:50;;;;;;;18.77;17.98;;;;;;;23.11;100.00;102088.36;2000465;71;31384;-70
2022/07/13 06:56:35;;;;;;;18.52;17.55;;;;;;;23.34;100.00;102095.43;1995478;71;30891;-70
2022/07/13 07:02:20;;;;;;;16.67;15.88;;;;;;;23.19;100.00;102098.02;2008289;71;30936;-70
2022/07/13 07:08:05;;;;;;;16.40;15.40;;;;;;;23.18;100.00;102108.53;2001206;71;33351;-71
2022/07/13 07:13:50;;;;;;;17.40;16.27;;;;;;;23.43;100.00;102110.43;2018804;71;30932;-71
2022/07/13 07:19:34;;;;;;;16.87;15.98;;;;;;;23.53;100.00;102116.31;2009746;71;31053;-71
2022/07/13 07:25:19;;;;;;;14.90;14.20;;;;;;;23.77;100.00;102118.48;2016957;71;31058;-69
2022/07/13 07:31:03;;;;;;;14.07;13.28;;;;;;;23.82;100.00;102119.13;2000472;71;31013;-71
2022/07/13 07:36:47;;;;;;;14.75;13.43;;;;;;;24.21;100.00;102117.85;1995471;71;30908;-69
2022/07/13 07:42:31;;;;;;;13.75;12.95;;;;;;;24.66;100.00;102116.48;2006202;71;31517;-70
2022/07/13 07:48:15;;;;;;;12.37;11.88;;;;;;;24.63;100.00;102112.93;2003177;71;30914;-69
2022/07/13 07:54:00;;;;;;;13.48;12.78;;;;;;;24.43;100.00;102108.93;2017039;71;31422;-70
2022/07/13 07:59:45;;;;;;;12.53;12.03;;;;;;;24.82;100.00;102096.73;1997341;70;30957;-70
2022/07/13 08:05:30;;;;;;;12.60;12.00;;;;;;;24.93;100.00;102105.94;1999083;71;31422;-71
2022/07/13 08:11:17;;;;;;;13.03;12.23;;;;;;;25.07;100.00;102102.77;2010260;71;31333;-70
2022/07/13 08:17:01;;;;;;;12.37;11.88;;;;;;;25.11;100.00;102102.30;2011760;71;30894;-71
2022/07/13 08:22:45;;;;;;;11.93;11.40;;;;;;;25.15;100.00;102103.25;2015352;71;30957;-70
2022/07/13 08:28:30;;;;;;;11.33;10.85;;;;;;;25.23;100.00;102104.31;2008485;71;30828;-72
2022/07/13 08:40:18;;;;;;;11.40;10.90;;;;;;;24.99;100.00;102109.36;2011622;71;30868;-71
2022/07/13 08:46:04;;;;;;;11.35;10.85;;;;;;;25.04;100.00;102111.15;2015465;71;31499;-71
2022/07/13 08:51:52;;;;;;;11.78;11.18;;;;;;;25.08;100.00;102100.73;2013844;71;31369;-71
2022/07/13 08:57:39;;;;;;;12.10;11.40;;;;;;;25.02;100.00;102070.88;1975897;70;28564;-71
2022/07/13 09:03:27;;;;;;;11.95;11.35;;;;;;;25.33;100.00;102108.09;1995288;71;30879;-70
2022/07/13 09:09:31;;;;;;;11.60;10.98;;;;;;;25.35;100.00;102122.22;1997530;70;33359;-70
2022/07/13 09:15:35;;;;;;;12.45;11.78;;;;;;;25.14;100.00;102129.19;2015414;71;30963;-72
2022/07/13 09:21:22;;;;;;;11.05;10.35;;;;;;;25.75;100.00;102132.32;2013287;71;30923;-72
2022/07/13 09:27:09;;;;;;;11.50;11.00;;;;;;;25.82;100.00;102135.97;1999470;71;30919;-71
2022/07/13 09:32:55;;;;;;;11.15;10.58;;;;;;;25.82;100.00;102132.53;1995850;71;30876;-72
2022/07/13 09:38:57;;;;;;;10.95;10.45;;;;;;;25.95;100.00;102143.31;2006085;71;30969;-72
2022/07/13 09:50:46;;;;;;;11.38;10.88;;;;;;;25.90;100.00;102145.56;2003049;71;30828;-72
2022/07/13 09:56:44;;;;;;;11.70;11.08;;;;;;;26.04;100.00;102149.70;2011756;71;30883;-71
2022/07/13 10:02:31;;;;;;;11.70;11.00;;;;;;;26.05;100.00;102140.57;2011961;71;31414;-72
2022/07/13 10:08:17;;;;;;;11.70;11.10;;;;;;;25.84;100.00;102143.58;2006655;71;30867;-71
2022/07/13 10:14:02;;;;;;;11.93;11.22;;;;;;;25.97;100.00;102150.08;2017095;71;31402;-71
2022/07/13 10:19:51;;;;;;;11.28;10.68;;;;;;;26.08;100.00;102144.95;2004778;70;30964;-75
2022/07/13 10:25:48;;;;;;;11.25;10.78;;;;;;;26.19;100.00;102153.21;2004698;71;31390;-72
2022/07/13 10:31:36;;;;;;;11.33;10.82;;;;;;;26.41;100.00;102158.16;2009405;71;31059;-74
2022/07/13 10:37:23;;;;;;;12.70;11.80;;;;;;;26.39;100.00;102152.84;2006496;71;30891;-71
2022/07/13 10:43:25;;;;;;;11.90;11.40;;;;;;;26.40;100.00;102163.03;2013428;71;31467;-71
2022/07/13 10:49:29;;;;;;;11.73;11.12;;;;;;;25.99;100.00;102164.19;2006201;71;31020;-70
2022/07/13 10:55:33;;;;;;;12.05;11.45;;;;;;;26.26;100.00;102165.47;2006407;71;32394;-71
2022/07/13 11:01:57;;;;;;;12.15;11.55;;;;;;;25.93;100.00;102174.14;2009812;71;31494;-70
2022/07/13 11:07:45;;;;;;;12.55;12.05;;;;;;;26.19;100.00;102166.03;2008663;71;31010;-68
2022/07/13 11:13:36;;;;;;;12.37;11.60;;;;;;;25.98;100.00;102178.77;2002966;71;30897;-71
2022/07/13 11:19:51;;;;;;;12.03;11.33;;;;;;;26.44;100.00;102174.56;2008250;71;30824;-70
2022/07/13 11:25:43;;;;;;;12.47;11.83;;;;;;;26.60;100.00;102175.45;2009966;71;31449;-70
2022/07/13 11:31:44;;;;;;;16.37;15.08;;;;;;;26.66;100.00;102170.53;2017214;71;30992;-70
2022/07/13 11:37:28;;;;;;;11.93;11.33;;;;;;;26.41;100.00;102169.56;1992183;71;31317;-70
2022/07/13 11:43:13;;;;;;;12.33;11.73;;;;;;;26.59;100.00;102164.64;2015687;71;30899;-70
2022/07/13 11:49:02;;;;;;;12.80;12.20;;;;;;;26.37;100.00;102159.48;2015182;71;31857;-70
2022/07/13 11:54:57;;;;;;;12.28;11.78;;;;;;;26.53;100.00;102148.14;2006088;71;30991;-70
2022/07/13 12:00:43;;;;;;;12.73;12.03;;;;;;;26.85;100.00;102147.67;2011581;71;31957;-72
2022/07/13 12:06:29;;;;;;;12.28;11.68;;;;;;;26.41;100.00;102143.91;2015277;71;32327;-71
2022/07/13 12:12:14;;;;;;;13.25;12.60;;;;;;;26.65;100.00;102126.73;1997429;70;31802;-71
2022/07/13 12:18:02;;;;;;;13.50;12.85;;;;;;;26.96;100.00;102128.81;1995612;71;32336;-71
2022/07/13 12:23:50;;;;;;;13.15;12.55;;;;;;;26.81;100.00;102120.45;2006777;71;31399;-71
2022/07/13 12:29:35;;;;;;;12.98;12.23;;;;;;;26.89;100.00;102119.48;2011699;71;30885;-71
2022/07/13 12:35:22;;;;;;;12.88;12.18;;;;;;;26.72;100.00;102113.50;2013596;71;31870;-71
2022/07/13 12:41:08;;;;;;;12.20;11.70;;;;;;;27.09;100.00;102106.15;2015115;71;31995;-71
2022/07/13 12:46:55;;;;;;;12.63;11.93;;;;;;;26.78;100.00;102108.95;1997312;71;30929;-73
2022/07/13 12:53:08;;;;;;;12.00;11.50;;;;;;;26.40;100.00;102103.19;2018898;71;31836;-70
2022/07/13 12:59:17;;;;;;;12.40;11.70;;;;;;;26.93;100.00;102099.02;2008346;71;30933;-72
2022/07/13 13:05:19;;;;;;;11.57;11.08;;;;;;;26.61;100.00;102099.52;2009792;71;31394;-72
2022/07/13 13:11:05;;;;;;;12.00;11.40;;;;;;;26.77;100.00;102083.89;2015279;71;30892;-72
2022/07/13 13:16:50;;;;;;;11.80;11.20;;;;;;;26.51;100.00;102082.97;2004290;71;31905;-71
2022/07/13 13:22:34;;;;;;;12.37;11.78;;;;;;;26.41;100.00;102084.91;2018835;71;31409;-72
2022/07/13 13:28:19;;;;;;;11.30;10.70;;;;;;;26.41;100.00;102086.33;2018701;71;31066;-73
2022/07/13 13:34:04;;;;;;;11.53;11.03;;;;;;;26.86;100.00;102079.47;2012137;71;30953;-72
2022/07/13 13:39:48;;;;;;;11.40;10.90;;;;;;;26.69;100.00;102079.20;2018940;71;30963;-72
2022/07/13 13:45:32;;;;;;;11.20;10.70;;;;;;;26.69;100.00;102076.34;2006378;71;30887;-72
2022/07/13 13:51:17;;;;;;;11.50;10.98;;;;;;;26.47;100.00;102082.63;2015566;71;31422;-72
2022/07/13 13:57:01;;;;;;;11.43;10.72;;;;;;;26.57;100.00;102079.27;1995478;71;30834;-71
2022/07/13 14:02:47;;;;;;;11.30;10.80;;;;;;;27.18;100.00;102074.82;2004260;71;31837;-72
2022/07/13 14:08:31;;;;;;;10.95;10.48;;;;;;;27.27;100.00;102070.95;2004949;71;31353;-72
2022/07/13 14:14:18;;;;;;;11.53;10.98;;;;;;;26.54;100.00;102066.55;2010024;71;31557;-71
2022/07/13 14:20:03;;;;;;;11.60;11.10;;;;;;;27.05;100.00;102061.84;2017056;71;30973;-70
2022/07/13 14:25:49;;;;;;;11.95;11.12;;;;;;;26.98;100.00;102058.83;1972046;73;31524;-72
2022/07/13 14:31:34;;;;;;;11.68;11.10;;;;;;;26.59;100.00;102054.06;2015167;71;30996;-71
2022/07/13 14:37:23;;;;;;;11.25;10.85;;;;;;;26.89;100.00;102063.05;2000959;71;31855;-73
2022/07/13 14:43:06;;;;;;;11.75;10.95;;;;;;;26.77;100.00;102052.53;2015146;71;31865;-71
2022/07/13 14:48:51;;;;;;;11.68;11.08;;;;;;;26.71;100.00;102053.39;1991984;71;30936;-71
2022/07/13 14:54:35;;;;;;;11.57;10.98;;;;;;;26.88;100.00;102047.13;2012118;71;30905;-72
2022/07/13 15:00:20;;;;;;;11.45;10.90;;;;;;;27.13;100.00;102051.44;2015536;71;31480;-72
2022/07/13 15:06:05;;;;;;;11.60;11.10;;;;;;;27.06;100.00;102052.70;2006380;71;31821;-72
2022/07/13 15:11:50;;;;;;;11.63;10.98;;;;;;;27.65;100.00;102048.85;1995234;71;31372;-72
2022/07/13 15:17:36;;;;;;;11.53;11.03;;;;;;;27.16;100.00;102052.16;2016910;71;30888;-72
2022/07/13 15:23:25;;;;;;;13.18;12.37;;;;;;;27.11;100.00;102041.84;2018600;71;30897;-71
2022/07/13 15:29:10;;;;;;;12.50;11.90;;;;;;;27.14;100.00;102046.80;2006568;71;30890;-72
2022/07/13 15:34:55;;;;;;;11.65;11.05;;;;;;;27.20;100.00;102048.78;2016951;71;31842;-72
2022/07/13 15:46:43;;;;;;;11.50;10.90;;;;;;;27.24;100.00;102049.70;2006333;71;31056;-72
2022/07/13 15:52:27;;;;;;;11.45;10.85;;;;;;;27.30;100.00;102041.70;2018636;71;31462;-72
2022/07/13 15:58:12;;;;;;;12.00;11.30;;;;;;;27.26;100.00;102040.16;2018699;71;31064;-75
2022/07/13 16:03:57;;;;;;;12.55;11.65;;;;;;;26.98;100.00;102037.44;2010298;71;30897;-72
2022/07/13 16:09:43;;;;;;;11.75;11.20;;;;;;;26.79;100.00;102036.45;2001321;71;31062;-72
2022/07/13 16:15:29;;;;;;;11.68;11.10;;;;;;;27.17;100.00;102037.50;1991967;71;31028;-73
2022/07/13 16:21:13;;;;;;;12.23;11.63;;;;;;;27.00;100.00;102029.95;1995384;71;30863;-73
2022/07/13 16:27:01;;;;;;;12.00;11.03;;;;;;;27.07;100.00;102032.97;2012074;71;31345;-72
2022/07/13 16:32:46;;;;;;;12.10;11.20;;;;;;;26.78;100.00;102037.09;1999438;71;31010;-77
2022/07/13 16:38:30;;;;;;;11.83;11.20;;;;;;;26.99;100.00;102026.86;2011623;71;31869;-73
2022/07/13 16:44:15;;;;;;;12.30;11.70;;;;;;;26.96;100.00;102022.70;2014967;71;32384;-75
2022/07/13 16:50:02;;;;;;;12.90;12.05;;;;;;;27.27;100.00;102019.59;2011440;71;30976;-77
2022/07/13 16:59:02;;;;;;;12.70;11.68;;;;;;;27.22;100.00;102024.98;2010767;71;25176;-77
2022/07/13 17:01:33;;;;;;;12.37;11.68;;;;;;;27.33;100.00;102026.08;2018404;70;24158;-79
2022/07/13 17:04:06;;;;;;;11.97;11.10;;;;;;;27.37;100.00;102017.59;1967777;70;101585;-69
2022/07/13 17:06:36;;;;;;;12.93;12.13;;;;;;;27.18;100.00;102014.91;1886601;76;24548;-69
2022/07/13 17:09:07;;;;;;;12.35;11.50;;;;;;;27.26;100.00;102025.06;1874716;76;24192;-69
2022/07/13 17:11:37;;;;;;;12.07;11.30;;;;;;;27.11;100.00;102009.63;1886754;76;24130;-68
2022/07/13 17:14:10;;;;;;;11.45;10.85;;;;;;;26.99;100.00;102021.16;1874733;76;24616;-67
2022/07/13 17:16:40;;;;;;;11.83;11.03;;;;;;;26.99;100.00;102019.13;1874943;76;24695;-69
2022/07/13 17:19:11;;;;;;;11.80;11.10;;;;;;;26.89;100.00;102018.84;1886625;76;25166;-68
2022/07/13 17:21:42;;;;;;;12.20;11.12;;;;;;;26.89;100.00;102023.13;1874625;76;24142;-68
2022/07/13 17:24:13;;;;;;;12.43;11.55;;;;;;;27.02;100.00;102013.27;1886688;76;24177;-67
2022/07/13 17:26:44;;;;;;;13.78;11.93;;;;;;;27.02;100.00;102018.39;1874714;76;24138;-69
2022/07/13 17:29:14;;;;;;;11.73;10.93;;;;;;;26.88;100.00;102016.59;1886915;76;24207;-70
2022/07/13 17:31:44;;;;;;;12.10;11.20;;;;;;;26.84;100.00;102011.95;1883758;76;24607;-70
2022/07/13 17:34:15;;;;;;;12.65;11.50;;;;;;;26.89;100.00;102011.12;1904866;75;24205;-70
2022/07/13 17:36:45;;;;;;;12.20;11.38;;;;;;;27.02;100.00;102009.83;1904893;75;25213;-72
2022/07/13 17:39:15;;;;;;;12.40;11.55;;;;;;;27.07;100.00;102008.12;1904824;75;25151;-72
2022/07/13 17:41:45;;;;;;;13.08;12.05;;;;;;;27.06;100.00;102002.19;1904987;75;24135;-72
2022/07/13 17:44:16;;;;;;;12.20;11.40;;;;;;;27.05;100.00;102002.55;1904806;75;25155;-72
2022/07/13 17:46:46;;;;;;;12.58;11.68;;;;;;;27.00;100.00;102000.00;1904831;75;25237;-72
2022/07/13 17:49:17;;;;;;;12.80;11.70;;;;;;;26.94;100.00;101998.02;1892859;75;24306;-73
2022/07/13 17:55:11;;;;;;;13.03;12.03;;;;;;;26.93;100.00;101996.36;1904885;75;24625;-75
2022/07/13 17:57:42;;;;;;;12.58;11.68;;;;;;;26.95;100.00;101997.42;1904898;75;24638;-71
2022/07/13 18:00:17;;;;;;;13.38;12.35;;;;;;;27.04;100.00;101998.06;1904881;75;24154;-72
2022/07/13 18:02:47;;;;;;;13.80;12.73;;;;;;;26.96;100.00;101990.50;1904835;75;24197;-72
2022/07/13 18:05:18;;;;;;;13.45;12.50;;;;;;;26.91;100.00;101995.08;1904475;75;24160;-73
2022/07/13 18:07:49;;;;;;;14.07;12.98;;;;;;;26.89;100.00;102001.14;1904346;75;25233;-73
2022/07/13 18:13:35;;;;;;;13.05;12.25;;;;;;;26.94;100.00;101992.31;2004087;71;31452;-71
2022/07/13 18:19:20;;;;;;;14.53;13.38;;;;;;;26.93;100.00;101986.97;1997276;71;30898;-71
2022/07/13 18:25:05;;;;;;;12.30;11.60;;;;;;;26.99;100.00;101997.74;1998790;71;31366;-71
2022/07/13 18:30:50;;;;;;;12.78;11.80;;;;;;;27.00;100.00;101995.09;2000734;71;30930;-71
2022/07/13 18:36:35;;;;;;;12.15;11.45;;;;;;;26.58;100.00;101990.52;2004889;71;31568;-73
2022/07/13 18:42:20;;;;;;;12.47;11.78;;;;;;;26.41;100.00;101990.88;2000326;71;31395;-72
2022/07/13 18:48:06;;;;;;;11.50;10.75;;;;;;;26.23;100.00;101990.38;1991761;71;30993;-71
2022/07/13 18:53:51;;;;;;;10.78;10.18;;;;;;;26.36;100.00;102000.31;2006255;71;30828;-72
2022/07/13 18:59:36;;;;;;;12.20;11.40;;;;;;;26.22;100.00;102016.40;1997080;71;31326;-71
2022/07/13 19:05:21;;;;;;;12.30;11.53;;;;;;;26.03;100.00;102016.20;1997017;71;31788;-72
2022/07/13 19:11:06;;;;;;;11.93;11.33;;;;;;;25.93;100.00;102012.47;2011374;71;31006;-71
2022/07/13 19:16:53;;;;;;;11.70;11.20;;;;;;;25.78;100.00;102010.61;1991713;71;31913;-71
2022/07/13 19:22:38;;;;;;;11.25;10.63;;;;;;;25.61;100.00;102012.91;2015149;71;31371;-70
2022/07/13 19:28:24;;;;;;;12.23;11.45;;;;;;;25.60;100.00;102007.80;2015004;71;31383;-72
2022/07/13 19:34:08;;;;;;;11.08;10.58;;;;;;;25.55;100.00;102020.02;2002588;71;30812;-72
2022/07/13 19:39:54;;;;;;;11.80;11.20;;;;;;;25.59;100.00;102018.12;2009896;70;30816;-73
2022/07/13 19:45:39;;;;;;;11.53;10.82;;;;;;;25.44;100.00;102020.27;2015165;71;31372;-74
2022/07/13 19:51:30;;;;;;;10.95;10.38;;;;;;;25.45;100.00;102007.70;2013072;71;30865;-70
2022/07/13 19:57:10;;;;;;;11.73;11.03;;;;;;;25.76;100.00;102014.98;2000871;71;30948;-71
2022/07/13 20:02:56;;;;;;;11.63;10.90;;;;;;;25.32;100.00;102023.37;2000882;71;30889;-72
2022/07/13 20:08:40;;;;;;;11.35;10.60;;;;;;;25.12;100.00;102037.10;2013285;71;30949;-72
2022/07/13 20:14:25;;;;;;;11.28;10.63;;;;;;;25.34;100.00;102027.26;2011069;71;30997;-71
2022/07/13 20:20:13;;;;;;;11.15;10.23;;;;;;;24.85;100.00;102046.31;2006363;71;30907;-74
2022/07/13 20:25:58;;;;;;;11.75;10.88;;;;;;;24.69;100.00;102046.77;2008383;70;33246;-72
2022/07/13 20:31:42;;;;;;;11.15;10.55;;;;;;;24.63;100.00;102066.63;2011351;71;30894;-70
2022/07/13 20:37:26;;;;;;;11.65;11.00;;;;;;;24.16;100.00;102072.62;2015061;71;30882;-71
2022/07/13 20:43:10;;;;;;;11.15;10.45;;;;;;;23.69;100.00;102081.91;2006075;71;30946;-73
2022/07/13 20:48:55;;;;;;;11.63;10.88;;;;;;;22.72;100.00;102073.92;2006351;71;30903;-72
2022/07/13 20:54:39;;;;;;;11.63;10.70;;;;;;;22.72;100.00;102079.58;2016952;71;30898;-73
2022/07/13 21:00:24;;;;;;;11.50;10.58;;;;;;;22.53;100.00;102078.53;2012144;71;31309;-73
2022/07/13 21:06:09;;;;;;;11.15;10.32;;;;;;;22.35;100.00;102085.97;2016911;71;30931;-74
2022/07/13 21:11:53;;;;;;;10.97;10.30;;;;;;;22.13;100.00;102095.47;1997175;71;30900;-74
2022/07/13 21:17:39;;;;;;;11.18;10.40;;;;;;;21.85;100.00;102103.44;2000830;71;30805;-74
2022/07/13 21:23:26;;;;;;;11.20;10.40;;;;;;;21.90;100.00;102099.03;2006527;71;30948;-73
2022/07/13 21:29:10;;;;;;;10.43;9.77;;;;;;;21.82;100.00;102093.38;1991589;71;30921;-71
2022/07/13 21:34:54;;;;;;;11.50;10.30;;;;;;;21.72;100.00;102098.18;2015141;71;31422;-71
2022/07/13 21:40:39;;;;;;;10.40;9.80;;;;;;;21.60;100.00;102102.23;2017065;71;31359;-70
2022/07/13 21:46:23;;;;;;;10.50;9.90;;;;;;;21.30;100.00;102097.50;2006311;71;30875;-71
2022/07/13 21:52:07;;;;;;;10.77;10.17;;;;;;;21.23;100.00;102094.30;2004057;71;31402;-75
2022/07/13 21:57:53;;;;;;;10.80;10.10;;;;;;;21.19;100.00;102103.17;2015526;71;31539;-76
2022/07/13 22:03:37;;;;;;;9.93;9.40;;;;;;;21.00;100.00;102100.59;2015277;71;31093;-76
2022/07/13 22:09:21;;;;;;;9.97;9.37;;;;;;;21.20;100.00;102096.37;2010215;71;31467;-76
2022/07/13 22:12:27;;;;;;;10.43;9.73;;;;;;;21.01;100.00;102102.23;1979666;72;24205;-76
2022/07/13 22:15:32;;;;;;;10.60;10.00;;;;;;;20.97;100.00;102112.52;1975482;72;24151;-76
2022/07/13 22:18:37;;;;;;;11.37;10.30;;;;;;;20.96;100.00;102113.70;1973830;72;24144;-74
2022/07/13 22:21:42;;;;;;;10.90;10.20;;;;;;;20.92;100.00;102112.69;1967279;72;24222;-75
2022/07/13 22:24:48;;;;;;;10.20;9.70;;;;;;;20.97;100.00;102109.69;1963145;72;24171;-74
2022/07/13 22:27:53;;;;;;;10.47;9.80;;;;;;;20.84;100.00;102104.39;1983649;72;24235;-75
2022/07/13 22:30:57;;;;;;;10.00;9.40;;;;;;;20.96;100.00;102100.98;1977661;72;24232;-75
2022/07/13 22:34:03;;;;;;;10.30;9.80;;;;;;;20.90;100.00;102109.33;1932502;73;24165;-74
2022/07/13 22:37:08;;;;;;;10.43;9.83;;;;;;;20.92;100.00;102114.67;1928954;73;24255;-75
2022/07/13 22:40:13;;;;;;;10.60;10.00;;;;;;;20.81;100.00;102109.87;1940283;73;24204;-74
2022/07/13 22:43:19;;;;;;;11.57;10.77;;;;;;;20.71;100.00;102103.91;1928131;73;24165;-75
2022/07/13 22:46:24;;;;;;;15.83;14.63;;;;;;;20.84;100.00;102107.80;1933032;73;26650;-75
2022/07/13 22:49:29;;;;;;;15.70;14.70;;;;;;;21.25;100.00;102099.05;1937866;73;24229;-76
2022/07/13 22:52:34;;;;;;;21.20;20.13;;;;;;;21.00;100.00;102099.75;1937693;73;24143;-75
2022/07/13 22:55:39;;;;;;;22.10;20.70;;;;;;;21.33;100.00;102101.91;1864203;76;24168;-75